Ciampino–G. B. Pastine International Airport

LIRA · Latium, Italy

METAR history LIRA · Ciampino–G. B. Pastine International Airport

Below you see METARs of the last few days. Select a year to browse through older METARs, from the year 2007 onwards.

December 6, 2022

Time Code Weather Temp. Visibility Ceiling Wind METAR/SPECI
11:50
V
17 °C 10 km+ - 160° 160° 7 kt METAR LIRA 061050Z 16007KT 140V200 9999 FEW025 17/09 Q1016
11:20
V
16 °C 10 km+ - Var Var 3 kt METAR LIRA 061020Z VRB03KT 9999 FEW025 16/10 Q1016
10:50
V
16 °C 10 km+ - 160° 160° 8 kt METAR LIRA 060950Z 16008KT 120V190 9999 FEW025 16/10 Q1016
10:20
V
16 °C 10 km+ - 170° 170° 6 kt METAR LIRA 060920Z 17006KT 150V210 9999 FEW025 16/10 Q1016
09:50
V
13 °C 10 km+ - 030° 030° 3 kt METAR LIRA 060850Z 03003KT 310V070 CAVOK 13/09 Q1016
09:20
V
13 °C 10 km+ - Var Var 2 kt METAR LIRA 060820Z VRB02KT CAVOK 13/09 Q1016
08:50
V
12 °C 10 km+ - 040° 040° 3 kt METAR LIRA 060750Z 04003KT 010V100 CAVOK 12/09 Q1016
08:20
V
13 °C 10 km+ - 190° 190° 4 kt METAR LIRA 060720Z 19004KT 090V220 CAVOK 13/09 Q1016
07:50
V
12 °C 10 km+ - Var Var 2 kt METAR LIRA 060650Z VRB02KT CAVOK 12/08 Q1016
07:20
V
12 °C 10 km+ - 110° 110° 5 kt METAR LIRA 060620Z 11005KT 060V140 9999 FEW025 12/08 Q1016
06:50
V
13 °C 10 km+ - 160° 160° 6 kt METAR LIRA 060550Z 16006KT CAVOK 13/09 Q1016
06:20
V
14 °C 10 km+ - 170° 170° 8 kt METAR LIRA 060520Z 17008KT CAVOK 14/09 Q1016
05:20
V
13 °C 10 km+ - 160° 160° 7 kt METAR LIRA 060420Z 16007KT CAVOK 13/09 Q1016
04:50
V
14 °C 10 km+ - 170° 170° 7 kt METAR LIRA 060350Z 17007KT CAVOK 14/09 Q1017
04:20
V
14 °C 10 km+ - 170° 170° 7 kt METAR LIRA 060320Z 17007KT CAVOK 14/09 Q1017
03:50
V
14 °C 10 km+ - 160° 160° 7 kt METAR LIRA 060250Z 16007KT CAVOK 14/09 Q1017
03:20
V
14 °C 10 km+ - 170° 170° 6 kt METAR LIRA 060220Z 17006KT CAVOK 14/09 Q1018
02:50
V
14 °C 10 km+ - 170° 170° 4 kt METAR LIRA 060150Z 17004KT 130V210 CAVOK 14/09 Q1018
02:20
V
13 °C 10 km+ - Var Var 2 kt METAR LIRA 060120Z VRB02KT CAVOK 13/09 Q1018
01:50
V
11 °C 10 km+ - Var Var 1 kt METAR LIRA 060050Z VRB01KT CAVOK 11/09 Q1018
01:20
V
11 °C 10 km+ - Var Var 2 kt METAR LIRA 060020Z VRB02KT CAVOK 11/09 Q1018
00:50
V
11 °C 10 km+ - 360° 360° 3 kt METAR LIRA 052350Z 36003KT 300V030 CAVOK 11/09 Q1018
00:20
V
11 °C 10 km+ - 330° 330° 4 kt METAR LIRA 052320Z 33004KT CAVOK 11/09 Q1019

December 5, 2022

Time Code Weather Temp. Visibility Ceiling Wind METAR/SPECI
23:50
V
12 °C 10 km+ - Var Var 2 kt METAR LIRA 052250Z VRB02KT CAVOK 12/09 Q1019
23:20
V
14 °C 10 km+ - 160° 160° 5 kt METAR LIRA 052220Z 16005KT CAVOK 14/10 Q1019
22:50
V
14 °C 10 km+ - 160° 160° 5 kt METAR LIRA 052150Z 16005KT CAVOK 14/10 Q1019
22:20
V
15 °C 10 km+ - 170° 170° 7 kt METAR LIRA 052120Z 17007KT 120V180 CAVOK 15/11 Q1019
21:50
V
14 °C 10 km+ - 160° 160° 4 kt METAR LIRA 052050Z 16004KT 130V200 CAVOK 14/11 Q1019
21:20
V
14 °C 10 km+ - 150° 150° 4 kt METAR LIRA 052020Z 15004KT 110V180 CAVOK 14/11 Q1019
20:50
V
14 °C 10 km+ - 190° 190° 5 kt METAR LIRA 051950Z 19005KT 150V220 CAVOK 14/11 Q1019
20:20
V
14 °C 10 km+ - 150° 150° 8 kt METAR LIRA 051920Z 15008KT 120V180 CAVOK 14/11 Q1019
19:50
V
14 °C 10 km+ - 170° 170° 7 kt METAR LIRA 051850Z 17007KT CAVOK 14/11 Q1019
19:20
V
14 °C 10 km+ - 180° 180° 6 kt METAR LIRA 051820Z 18006KT CAVOK 14/12 Q1019
18:50
V
15 °C 10 km+ - 190° 190° 7 kt METAR LIRA 051750Z 19007KT CAVOK 15/11 Q1019
18:20
V
14 °C 10 km+ - 180° 180° 6 kt METAR LIRA 051720Z 18006KT CAVOK 14/11 Q1019
17:50
V
15 °C 10 km+ - 190° 190° 7 kt METAR LIRA 051650Z 19007KT CAVOK 15/11 Q1019
17:20
V
14 °C 10 km+ - 190° 190° 7 kt METAR LIRA 051620Z 19007KT CAVOK 14/11 Q1019
16:50
V
15 °C 10 km+ - 180° 180° 7 kt METAR LIRA 051550Z 18007KT CAVOK 15/11 Q1019
16:20
V
16 °C 10 km+ - 180° 180° 8 kt METAR LIRA 051520Z 18008KT CAVOK 16/11 Q1019
15:50
V
16 °C 10 km+ - 180° 180° 8 kt METAR LIRA 051450Z 18008KT CAVOK 16/10 Q1019
15:20
V
17 °C 10 km+ - 190° 190° 8 kt METAR LIRA 051420Z 19008KT 160V220 9999 FEW030 17/10 Q1019
14:50
V
17 °C 10 km+ - 200° 200° 11 kt METAR LIRA 051350Z 20011KT 9999 FEW030 17/10 Q1019
14:20
V
17 °C 10 km+ - 190° 190° 11 kt METAR LIRA 051320Z 19011KT 9999 SCT030 17/10 Q1019
13:50
V
17 °C 10 km+ - 200° 200° 10 kt METAR LIRA 051250Z 20010KT 9999 SCT025 17/10 Q1020
13:20
V
17 °C 10 km+ - 190° 190° 11 kt METAR LIRA 051220Z 19011KT 9999 SCT025 17/11 Q1020
12:50
V
17 °C 10 km+ - 180° 180° 11 kt METAR LIRA 051150Z 18011KT 160V220 9999 SCT025 17/11 Q1020
12:20
V
17 °C 10 km+ - 180° 180° 13 kt METAR LIRA 051120Z 18013KT 9999 FEW025 17/11 Q1020
11:50
V
17 °C 10 km+ - 180° 180° 12 kt METAR LIRA 051050Z 18012KT 9999 FEW025 17/12 Q1020
11:20
V
17 °C 10 km+ - 180° 180° 12 kt METAR LIRA 051020Z 18012KT 9999 FEW025 17/11 Q1021
10:50
V
17 °C 10 km+ - 180° 180° 10 kt METAR LIRA 050950Z 18010KT 9999 FEW025 17/11 Q1021
10:20
V
16 °C 10 km+ - 170° 170° 10 kt METAR LIRA 050920Z 17010KT 9999 FEW025 16/11 Q1021
09:50
V
15 °C 10 km+ - 170° 170° 8 kt METAR LIRA 050850Z 17008KT 9999 FEW025 15/11 Q1021
09:20
V
15 °C 10 km+ - 170° 170° 6 kt METAR LIRA 050820Z 17006KT 9999 FEW025 15/11 Q1021
08:50
V
15 °C 10 km+ - 170° 170° 8 kt METAR LIRA 050750Z 17008KT 9999 FEW025 15/11 Q1020
08:20
V
13 °C 10 km+ - 170° 170° 6 kt METAR LIRA 050720Z 17006KT 9999 FEW025 13/10 Q1020
07:50
V
13 °C 10 km+ - 150° 150° 4 kt METAR LIRA 050650Z 15004KT 9999 FEW030 13/10 Q1020
07:20
V
13 °C 10 km+ - 170° 170° 5 kt METAR LIRA 050620Z 17005KT 9999 FEW030 13/10 Q1020
06:50
V
13 °C 10 km+ - 170° 170° 7 kt METAR LIRA 050550Z 17007KT CAVOK 13/10 Q1020
06:20
V
13 °C 10 km+ - 160° 160° 7 kt METAR LIRA 050520Z 16007KT CAVOK 13/10 Q1020
05:50
V
13 °C 10 km+ - 160° 160° 8 kt METAR LIRA 050450Z 16008KT CAVOK 13/10 Q1019
05:20
V
14 °C 10 km+ - 170° 170° 7 kt METAR LIRA 050420Z 17007KT CAVOK 14/10 Q1019
04:50
V
14 °C 10 km+ - 170° 170° 8 kt METAR LIRA 050350Z 17008KT 9999 FEW070 14/10 Q1019
04:20
V
14 °C 10 km+ - 170° 170° 9 kt METAR LIRA 050320Z 17009KT 9999 FEW070 14/11 Q1019
03:50
V
13 °C 10 km+ - 170° 170° 9 kt METAR LIRA 050250Z 17009KT 9999 FEW070 13/10 Q1019
03:20
V
14 °C 10 km+ - 170° 170° 9 kt METAR LIRA 050220Z 17009KT 9999 FEW070 14/10 Q1019
02:50
V
14 °C 10 km+ - 170° 170° 8 kt METAR LIRA 050150Z 17008KT 9999 FEW070 14/11 Q1019
02:20
V
14 °C 10 km+ - 180° 180° 9 kt METAR LIRA 050120Z 18009KT CAVOK 14/11 Q1019
01:50
V
14 °C 10 km+ - 180° 180° 9 kt METAR LIRA 050050Z 18009KT 9999 FEW070 14/11 Q1019
01:20
V
14 °C 10 km+ - 180° 180° 9 kt METAR LIRA 050020Z 18009KT 9999 FEW070 14/11 Q1019
00:50
V
14 °C 10 km+ - 170° 170° 8 kt METAR LIRA 042350Z 17008KT 9999 FEW070 14/11 Q1019
00:20
V
14 °C 10 km+ - 170° 170° 10 kt METAR LIRA 042320Z 17010KT CAVOK 14/10 Q1019

December 4, 2022

Time Code Weather Temp. Visibility Ceiling Wind METAR/SPECI
23:50
V
14 °C 10 km+ - 180° 180° 9 kt METAR LIRA 042250Z 18009KT CAVOK 14/10 Q1019
23:20
V
14 °C 10 km+ - 180° 180° 8 kt METAR LIRA 042220Z 18008KT CAVOK 14/10 Q1019
22:50
V
13 °C 10 km+ - 160° 160° 6 kt METAR LIRA 042150Z 16006KT CAVOK 13/10 Q1019
22:20
V
13 °C 10 km+ - 170° 170° 4 kt METAR LIRA 042120Z 17004KT 9999 FEW070 13/09 Q1019
21:50
V
14 °C 10 km+ - 170° 170° 5 kt METAR LIRA 042050Z 17005KT 9999 SCT070 14/08 Q1018
21:20
V
15 °C 10 km+ - 180° 180° 4 kt METAR LIRA 042020Z 18004KT 9999 SCT070 15/09 Q1018
20:50
V
14 °C 10 km+ - 170° 170° 4 kt METAR LIRA 041950Z 17004KT 140V200 9999 SCT070 14/10 Q1018
20:20
V
14 °C 10 km+ - 160° 160° 4 kt METAR LIRA 041920Z 16004KT 110V230 9999 SCT070 14/10 Q1018
19:50
V
13 °C 10 km+ - 160° 160° 5 kt METAR LIRA 041850Z 16005KT 9999 SCT070 13/10 Q1018
19:20
V
14 °C 10 km+ - 160° 160° 6 kt METAR LIRA 041820Z 16006KT 9999 SCT070 14/10 Q1018
18:50
V
13 °C 10 km+ - 160° 160° 8 kt METAR LIRA 041750Z 16008KT 9999 SCT070 13/09 Q1017
18:20
V
13 °C 10 km+ - 160° 160° 9 kt METAR LIRA 041720Z 16009KT CAVOK 13/09 Q1017
17:50
V
14 °C 10 km+ - 170° 170° 10 kt METAR LIRA 041650Z 17010KT CAVOK 14/09 Q1017
17:20
V
13 °C 10 km+ - 170° 170° 10 kt METAR LIRA 041620Z 17010KT CAVOK 13/09 Q1017
16:50
V
14 °C 10 km+ - 170° 170° 10 kt METAR LIRA 041550Z 17010KT CAVOK 14/10 Q1016
16:20
V
14 °C 10 km+ - 170° 170° 11 kt METAR LIRA 041520Z 17011KT CAVOK 14/09 Q1016
15:50
V
15 °C 10 km+ - 170° 170° 13 kt METAR LIRA 041450Z 17013KT 9999 FEW025 15/09 Q1016
15:20
V
15 °C 10 km+ - 170° 170° 13 kt METAR LIRA 041420Z 17013KT 9999 FEW025 15/10 Q1015
14:50
V
15 °C 10 km+ - 180° 180° 13 kt METAR LIRA 041350Z 18013KT 9999 FEW025 SCT060 15/10 Q1015
14:20
V
16 °C 10 km+ 6,000 ft 170° 170° 12 kt METAR LIRA 041320Z 17012KT 9999 FEW025 BKN060 16/10 Q1015
13:50
V
15 °C 10 km+ 6,000 ft 170° 170° 9 kt METAR LIRA 041250Z 17009KT 9999 FEW025 BKN060 15/10 Q1015
13:20
V
15 °C 10 km+ 6,000 ft 170° 170° 8 kt METAR LIRA 041220Z 17008KT 9999 FEW020 BKN060 15/11 Q1015
12:50
V
14 °C 9 km 6,000 ft 180° 180° 8 kt METAR LIRA 041150Z 18008KT 9000 -RA FEW020 BKN060 14/11 Q1015
12:20
V
15 °C 10 km+ - 180° 180° 9 kt METAR LIRA 041120Z 18009KT 9999 -RA FEW020 SCT050 15/10 Q1015
11:50
V
16 °C 10 km+ - 180° 180° 10 kt METAR LIRA 041050Z 18010KT 9999 FEW020 16/10 Q1015
11:20
V
15 °C 10 km+ - 170° 170° 11 kt METAR LIRA 041020Z 17011KT 9999 FEW030 15/10 Q1015
10:50
V
15 °C 10 km+ - 170° 170° 11 kt METAR LIRA 040950Z 17011KT 9999 FEW030 15/11 Q1015

We and third parties follow your internet behavior on our website with cookies. If you continue, we assume you agree with our cookie policy.